Terminal Aerodrome Forecast
Issued by NWS Billings, MT

Home | Current Version | Previous Version | Text Only | Print | Product List | Glossary On
Versions: 1 2 3 4 5 6 7 8 9 10 11 12 13 14 15 16 17 18 19 20 21 22
000
FTUS45 KBYZ 211137
TAFSHR
TAF
KSHR 211137Z 2112/2212 VRB05KT P6SM VCSH SCT100 OVC200
      WS020/27040KT
      TEMPO 2114/2118 27015G30KT
     FM211800 28015G25KT P6SM VCSH SCT050 BKN200 WS020/30055KT
     FM220200 30020G35KT P6SM VCSH BKN050 OVC120=

USA.gov is the U.S. government's official web portal to all federal, state and local government web resources and services.